sensor_id;sensor_type;location;lat;lon;timestamp;pressure;altitude;pressure_sealevel;temperature;humidity
23427;BME280;41148;45.420;10.952;2023-06-24T00:01:07;100747.56;;;25.78;54.23
23427;BME280;41148;45.420;10.952;2023-06-24T00:03:35;100749.75;;;25.63;54.12
23427;BME280;41148;45.420;10.952;2023-06-24T00:06:04;100745.59;;;25.59;54.29
23427;BME280;41148;45.420;10.952;2023-06-24T00:08:32;100745.16;;;25.64;54.25
23427;BME280;41148;45.420;10.952;2023-06-24T00:11:01;100732.94;;;25.58;53.98
23427;BME280;41148;45.420;10.952;2023-06-24T00:13:29;100736.75;;;25.77;54.03
23427;BME280;41148;45.420;10.952;2023-06-24T00:15:57;100726.16;;;25.83;54.02
23427;BME280;41148;45.420;10.952;2023-06-24T00:18:24;100730.44;;;25.76;53.98
23427;BME280;41148;45.420;10.952;2023-06-24T00:20:56;100728.94;;;25.62;55.04
23427;BME280;41148;45.420;10.952;2023-06-24T00:23:24;100719.03;;;25.61;54.71
23427;BME280;41148;45.420;10.952;2023-06-24T00:25:52;100718.31;;;25.59;55.02
23427;BME280;41148;45.420;10.952;2023-06-24T00:28:20;100711.38;;;25.55;54.94
23427;BME280;41148;45.420;10.952;2023-06-24T00:30:48;100709.84;;;25.62;55.19
23427;BME280;41148;45.420;10.952;2023-06-24T00:33:16;100720.59;;;25.64;55.25
23427;BME280;41148;45.420;10.952;2023-06-24T00:35:46;100704.41;;;25.32;55.73
23427;BME280;41148;45.420;10.952;2023-06-24T00:38:15;100695.84;;;25.46;54.92
23427;BME280;41148;45.420;10.952;2023-06-24T00:40:42;100705.78;;;25.57;55.25
23427;BME280;41148;45.420;10.952;2023-06-24T00:43:10;100698.69;;;25.35;55.46
23427;BME280;41148;45.420;10.952;2023-06-24T00:45:38;100713.22;;;25.45;55.43
23427;BME280;41148;45.420;10.952;2023-06-24T00:48:06;100688.50;;;25.37;55.59
23427;BME280;41148;45.420;10.952;2023-06-24T00:50:33;100694.84;;;25.47;54.72
23427;BME280;41148;45.420;10.952;2023-06-24T00:53:02;100679.22;;;25.19;55.16
23427;BME280;41148;45.420;10.952;2023-06-24T00:55:30;100695.97;;;25.35;54.76
23427;BME280;41148;45.420;10.952;2023-06-24T00:57:57;100691.50;;;25.34;54.86
23427;BME280;41148;45.420;10.952;2023-06-24T01:00:27;100685.84;;;24.95;55.90
23427;BME280;41148;45.420;10.952;2023-06-24T01:02:56;100686.28;;;24.91;55.94
23427;BME280;41148;45.420;10.952;2023-06-24T01:05:28;100705.28;;;25.02;55.70
23427;BME280;41148;45.420;10.952;2023-06-24T01:07:55;100681.19;;;25.07;54.85
23427;BME280;41148;45.420;10.952;2023-06-24T01:10:24;100684.97;;;25.16;54.90
23427;BME280;41148;45.420;10.952;2023-06-24T01:12:52;100681.00;;;24.78;56.09
23427;BME280;41148;45.420;10.952;2023-06-24T01:15:19;100698.44;;;24.66;56.46
23427;BME280;41148;45.420;10.952;2023-06-24T01:17:59;100685.13;;;24.93;55.25
23427;BME280;41148;45.420;10.952;2023-06-24T01:20:39;100689.66;;;25.04;54.83
23427;BME280;41148;45.420;10.952;2023-06-24T01:25:59;100701.81;;;24.79;56.26
23427;BME280;41148;45.420;10.952;2023-06-24T01:29:09;100699.56;;;24.63;57.19
23427;BME280;41148;45.420;10.952;2023-06-24T01:34:25;100700.81;;;24.80;56.74
23427;BME280;41148;45.420;10.952;2023-06-24T01:39:24;100705.03;;;24.63;57.34
23427;BME280;41148;45.420;10.952;2023-06-24T01:42:08;100689.53;;;24.64;57.54
23427;BME280;41148;45.420;10.952;2023-06-24T01:44:40;100712.41;;;24.72;57.47
23427;BME280;41148;45.420;10.952;2023-06-24T01:47:10;100707.47;;;24.45;58.53
23427;BME280;41148;45.420;10.952;2023-06-24T01:49:41;100705.19;;;24.50;58.64
23427;BME280;41148;45.420;10.952;2023-06-24T01:52:10;100704.69;;;24.24;59.44
23427;BME280;41148;45.420;10.952;2023-06-24T01:54:39;100702.34;;;24.20;58.53
23427;BME280;41148;45.420;10.952;2023-06-24T01:57:09;100710.81;;;24.06;58.22
23427;BME280;41148;45.420;10.952;2023-06-24T01:59:42;100708.13;;;24.26;58.17
23427;BME280;41148;45.420;10.952;2023-06-24T02:02:13;100698.28;;;24.14;57.78
23427;BME280;41148;45.420;10.952;2023-06-24T02:04:44;100700.50;;;23.77;58.65
23427;BME280;41148;45.420;10.952;2023-06-24T02:07:13;100709.84;;;23.95;57.95
23427;BME280;41148;45.420;10.952;2023-06-24T02:09:43;100716.16;;;23.96;57.92
23427;BME280;41148;45.420;10.952;2023-06-24T02:12:12;100713.03;;;24.01;57.63
23427;BME280;41148;45.420;10.952;2023-06-24T02:14:40;100716.34;;;24.15;57.08
23427;BME280;41148;45.420;10.952;2023-06-24T02:17:11;100712.03;;;24.13;56.79
23427;BME280;41148;45.420;10.952;2023-06-24T02:19:40;100706.78;;;24.21;56.20
23427;BME280;41148;45.420;10.952;2023-06-24T02:22:08;100714.22;;;24.19;55.78
23427;BME280;41148;45.420;10.952;2023-06-24T02:24:38;100721.03;;;24.24;55.41
23427;BME280;41148;45.420;10.952;2023-06-24T02:27:06;100720.75;;;24.27;55.06
23427;BME280;41148;45.420;10.952;2023-06-24T02:29:36;100726.97;;;24.18;55.11
23427;BME280;41148;45.420;10.952;2023-06-24T02:32:05;100717.66;;;24.21;54.59
23427;BME280;41148;45.420;10.952;2023-06-24T02:34:33;100721.88;;;24.25;54.13
23427;BME280;41148;45.420;10.952;2023-06-24T02:37:00;100730.63;;;24.28;54.04
23427;BME280;41148;45.420;10.952;2023-06-24T02:39:28;100729.69;;;24.18;53.68
23427;BME280;41148;45.420;10.952;2023-06-24T02:41:55;100728.75;;;24.08;54.20
23427;BME280;41148;45.420;10.952;2023-06-24T02:44:23;100727.88;;;24.08;54.49
23427;BME280;41148;45.420;10.952;2023-06-24T02:46:53;100728.47;;;24.11;54.77
23427;BME280;41148;45.420;10.952;2023-06-24T02:49:25;100735.03;;;24.09;55.12
23427;BME280;41148;45.420;10.952;2023-06-24T02:51:53;100737.16;;;24.05;55.28
23427;BME280;41148;45.420;10.952;2023-06-24T02:54:20;100740.63;;;24.07;55.43
23427;BME280;41148;45.420;10.952;2023-06-24T02:57:17;100739.44;;;23.89;56.43
23427;BME280;41148;45.420;10.952;2023-06-24T03:00:06;100747.97;;;23.95;56.42
23427;BME280;41148;45.420;10.952;2023-06-24T03:03:04;100745.59;;;23.91;56.61
23427;BME280;41148;45.420;10.952;2023-06-24T03:08:40;100748.00;;;23.84;57.07
23427;BME280;41148;45.420;10.952;2023-06-24T03:11:12;100754.78;;;23.79;57.27
23427;BME280;41148;45.420;10.952;2023-06-24T03:13:40;100764.19;;;23.86;57.38
23427;BME280;41148;45.420;10.952;2023-06-24T03:16:15;100761.59;;;23.84;57.27
23427;BME280;41148;45.420;10.952;2023-06-24T03:19:04;100767.75;;;23.86;57.61
23427;BME280;41148;45.420;10.952;2023-06-24T03:21:32;100769.13;;;23.81;57.76
23427;BME280;41148;45.420;10.952;2023-06-24T03:24:07;100780.09;;;23.90;57.77
23427;BME280;41148;45.420;10.952;2023-06-24T03:26:38;100772.22;;;23.87;57.86
23427;BME280;41148;45.420;10.952;2023-06-24T03:29:07;100785.41;;;23.92;57.59
23427;BME280;41148;45.420;10.952;2023-06-24T03:31:38;100796.94;;;23.95;58.06
23427;BME280;41148;45.420;10.952;2023-06-24T03:34:15;100806.94;;;24.06;57.40
23427;BME280;41148;45.420;10.952;2023-06-24T03:36:44;100809.50;;;24.19;56.47
23427;BME280;41148;45.420;10.952;2023-06-24T03:39:14;100806.63;;;24.20;55.93
23427;BME280;41148;45.420;10.952;2023-06-24T03:41:42;100812.56;;;24.37;55.68
23427;BME280;41148;45.420;10.952;2023-06-24T03:44:12;100811.09;;;24.21;55.88
23427;BME280;41148;45.420;10.952;2023-06-24T03:46:40;100825.19;;;24.38;56.08
23427;BME280;41148;45.420;10.952;2023-06-24T03:49:10;100822.25;;;24.18;56.07
23427;BME280;41148;45.420;10.952;2023-06-24T03:51:38;100834.34;;;24.25;55.66
23427;BME280;41148;45.420;10.952;2023-06-24T03:54:05;100840.44;;;24.18;56.17
23427;BME280;41148;45.420;10.952;2023-06-24T03:56:33;100831.81;;;24.13;55.68
23427;BME280;41148;45.420;10.952;2023-06-24T03:59:00;100845.16;;;24.16;55.73
23427;BME280;41148;45.420;10.952;2023-06-24T04:01:31;100840.69;;;24.15;56.95
23427;BME280;41148;45.420;10.952;2023-06-24T04:03:59;100854.94;;;24.07;56.50
23427;BME280;41148;45.420;10.952;2023-06-24T04:06:27;100856.28;;;24.02;56.36
23427;BME280;41148;45.420;10.952;2023-06-24T04:08:54;100854.94;;;23.96;55.58
23427;BME280;41148;45.420;10.952;2023-06-24T04:11:22;100855.44;;;23.90;56.92
23427;BME280;41148;45.420;10.952;2023-06-24T04:13:50;100858.13;;;24.01;56.64
23427;BME280;41148;45.420;10.952;2023-06-24T04:16:17;100874.88;;;23.85;56.98
23427;BME280;41148;45.420;10.952;2023-06-24T04:18:45;100886.00;;;23.93;56.62
23427;BME280;41148;45.420;10.952;2023-06-24T04:21:12;100867.91;;;23.92;56.55
23427;BME280;41148;45.420;10.952;2023-06-24T04:23:41;100887.72;;;23.94;55.87
23427;BME280;41148;45.420;10.952;2023-06-24T04:26:09;100872.00;;;23.87;55.88
23427;BME280;41148;45.420;10.952;2023-06-24T04:28:37;100864.22;;;23.93;55.84
23427;BME280;41148;45.420;10.952;2023-06-24T04:31:05;100885.34;;;24.01;56.22
23427;BME280;41148;45.420;10.952;2023-06-24T04:33:33;100884.88;;;24.07;55.88
23427;BME280;41148;45.420;10.952;2023-06-24T04:36:00;100885.34;;;24.01;56.61
23427;BME280;41148;45.420;10.952;2023-06-24T04:38:28;100884.75;;;23.86;57.31
23427;BME280;41148;45.420;10.952;2023-06-24T04:40:58;100886.34;;;23.78;57.54
23427;BME280;41148;45.420;10.952;2023-06-24T04:43:26;100883.25;;;23.82;57.77
23427;BME280;41148;45.420;10.952;2023-06-24T04:45:56;100893.66;;;23.99;57.14
23427;BME280;41148;45.420;10.952;2023-06-24T04:48:24;100889.59;;;23.94;55.75
23427;BME280;41148;45.420;10.952;2023-06-24T04:50:51;100889.91;;;24.12;54.29
23427;BME280;41148;45.420;10.952;2023-06-24T04:53:21;100907.88;;;24.25;54.07
23427;BME280;41148;45.420;10.952;2023-06-24T04:55:48;100903.44;;;24.36;53.81
23427;BME280;41148;45.420;10.952;2023-06-24T04:58:16;100906.88;;;24.26;54.58
23427;BME280;41148;45.420;10.952;2023-06-24T05:00:43;100895.97;;;24.26;54.16
23427;BME280;41148;45.420;10.952;2023-06-24T05:03:11;100917.41;;;24.42;54.06
23427;BME280;41148;45.420;10.952;2023-06-24T05:05:38;100909.13;;;24.44;53.87
23427;BME280;41148;45.420;10.952;2023-06-24T05:08:06;100914.44;;;24.34;54.20
23427;BME280;41148;45.420;10.952;2023-06-24T05:10:34;100922.44;;;24.58;53.63
23427;BME280;41148;45.420;10.952;2023-06-24T05:13:01;100912.44;;;24.47;54.62
23427;BME280;41148;45.420;10.952;2023-06-24T05:15:29;100912.06;;;24.52;54.14
23427;BME280;41148;45.420;10.952;2023-06-24T05:17:56;100931.56;;;24.68;54.08
23427;BME280;41148;45.420;10.952;2023-06-24T05:20:24;100934.16;;;24.70;54.61
23427;BME280;41148;45.420;10.952;2023-06-24T05:22:51;100935.47;;;24.54;55.37
23427;BME280;41148;45.420;10.952;2023-06-24T05:25:19;100934.19;;;24.59;55.95
23427;BME280;41148;45.420;10.952;2023-06-24T05:27:46;100930.47;;;24.60;55.11
23427;BME280;41148;45.420;10.952;2023-06-24T05:30:14;100936.13;;;24.79;55.30
23427;BME280;41148;45.420;10.952;2023-06-24T05:32:42;100937.84;;;24.80;55.17
23427;BME280;41148;45.420;10.952;2023-06-24T05:35:09;100933.03;;;24.83;54.83
23427;BME280;41148;45.420;10.952;2023-06-24T05:37:37;100930.56;;;24.80;55.08
23427;BME280;41148;45.420;10.952;2023-06-24T05:40:06;100940.44;;;24.93;55.14
23427;BME280;41148;45.420;10.952;2023-06-24T05:42:34;100933.50;;;24.89;55.14
23427;BME280;41148;45.420;10.952;2023-06-24T05:45:01;100947.47;;;24.95;54.80
23427;BME280;41148;45.420;10.952;2023-06-24T05:47:29;100955.41;;;25.09;55.05
23427;BME280;41148;45.420;10.952;2023-06-24T05:49:56;100943.81;;;25.17;54.50
23427;BME280;41148;45.420;10.952;2023-06-24T05:52:24;100957.66;;;25.99;52.76
23427;BME280;41148;45.420;10.952;2023-06-24T05:54:52;100943.34;;;27.26;48.73
23427;BME280;41148;45.420;10.952;2023-06-24T05:57:19;100952.97;;;27.49;47.58
23427;BME280;41148;45.420;10.952;2023-06-24T05:59:47;100950.22;;;27.01;48.76
23427;BME280;41148;45.420;10.952;2023-06-24T06:02:14;100948.03;;;26.66;49.99
23427;BME280;41148;45.420;10.952;2023-06-24T06:04:42;100946.28;;;26.55;50.53
23427;BME280;41148;45.420;10.952;2023-06-24T06:07:09;100947.13;;;26.56;49.98
23427;BME280;41148;45.420;10.952;2023-06-24T06:09:37;100958.94;;;26.66;49.45
23427;BME280;41148;45.420;10.952;2023-06-24T06:12:05;100962.50;;;26.57;49.99
23427;BME280;41148;45.420;10.952;2023-06-24T06:14:34;100966.50;;;26.52;50.44
23427;BME280;41148;45.420;10.952;2023-06-24T06:17:01;100980.97;;;26.64;49.44
23427;BME280;41148;45.420;10.952;2023-06-24T06:19:29;100973.47;;;26.66;49.31
23427;BME280;41148;45.420;10.952;2023-06-24T06:21:56;100980.53;;;26.78;49.62
23427;BME280;41148;45.420;10.952;2023-06-24T06:24:24;100977.41;;;26.83;49.85
23427;BME280;41148;45.420;10.952;2023-06-24T06:26:51;100976.88;;;27.08;49.33
23427;BME280;41148;45.420;10.952;2023-06-24T06:29:19;100978.06;;;27.45;48.22
23427;BME280;41148;45.420;10.952;2023-06-24T06:31:46;100982.25;;;28.15;45.41
23427;BME280;41148;45.420;10.952;2023-06-24T06:34:14;100971.38;;;29.33;41.86
23427;BME280;41148;45.420;10.952;2023-06-24T06:36:41;100974.75;;;29.09;42.34
23427;BME280;41148;45.420;10.952;2023-06-24T06:39:09;100988.16;;;29.30;41.92
23427;BME280;41148;45.420;10.952;2023-06-24T06:41:36;100983.31;;;29.06;42.88
23427;BME280;41148;45.420;10.952;2023-06-24T06:44:04;100966.84;;;28.78;43.15
23427;BME280;41148;45.420;10.952;2023-06-24T06:46:32;100973.50;;;28.48;43.30
23427;BME280;41148;45.420;10.952;2023-06-24T06:49:00;100989.59;;;28.24;43.25
23427;BME280;41148;45.420;10.952;2023-06-24T06:51:27;100994.56;;;28.01;41.08
23427;BME280;41148;45.420;10.952;2023-06-24T06:53:55;100991.28;;;27.69;40.92
23427;BME280;41148;45.420;10.952;2023-06-24T06:56:23;100991.88;;;27.53;41.30
23427;BME280;41148;45.420;10.952;2023-06-24T06:58:52;100988.44;;;27.41;41.96
23427;BME280;41148;45.420;10.952;2023-06-24T07:01:20;100986.56;;;27.32;42.76
23427;BME280;41148;45.420;10.952;2023-06-24T07:03:49;100985.25;;;27.36;43.40
23427;BME280;41148;45.420;10.952;2023-06-24T07:06:20;100992.75;;;27.34;43.18
23427;BME280;41148;45.420;10.952;2023-06-24T07:08:47;100992.28;;;27.38;43.71
23427;BME280;41148;45.420;10.952;2023-06-24T07:11:15;100993.16;;;27.49;45.07
23427;BME280;41148;45.420;10.952;2023-06-24T07:13:42;100996.63;;;27.51;45.50
23427;BME280;41148;45.420;10.952;2023-06-24T07:16:10;100996.91;;;27.57;45.76
23427;BME280;41148;45.420;10.952;2023-06-24T07:18:37;100997.63;;;27.59;45.19
23427;BME280;41148;45.420;10.952;2023-06-24T07:21:04;101002.81;;;27.62;44.11
23427;BME280;41148;45.420;10.952;2023-06-24T07:23:32;100997.50;;;27.61;44.20
23427;BME280;41148;45.420;10.952;2023-06-24T07:25:59;101006.00;;;27.67;43.76
23427;BME280;41148;45.420;10.952;2023-06-24T07:28:30;100999.66;;;27.67;44.29
23427;BME280;41148;45.420;10.952;2023-06-24T07:30:57;101001.81;;;27.73;42.83
23427;BME280;41148;45.420;10.952;2023-06-24T07:33:25;101003.97;;;27.70;43.78
23427;BME280;41148;45.420;10.952;2023-06-24T07:35:52;101003.69;;;27.73;43.15
23427;BME280;41148;45.420;10.952;2023-06-24T07:38:20;101003.81;;;27.61;42.57
23427;BME280;41148;45.420;10.952;2023-06-24T07:40:47;101001.94;;;27.62;42.58
23427;BME280;41148;45.420;10.952;2023-06-24T07:43:15;101005.72;;;27.71;41.89
23427;BME280;41148;45.420;10.952;2023-06-24T07:45:43;101006.59;;;27.71;41.69
23427;BME280;41148;45.420;10.952;2023-06-24T07:48:10;101008.56;;;27.79;41.83
23427;BME280;41148;45.420;10.952;2023-06-24T07:50:38;101006.97;;;27.86;38.53
23427;BME280;41148;45.420;10.952;2023-06-24T07:53:06;101016.94;;;27.77;39.24
23427;BME280;41148;45.420;10.952;2023-06-24T07:55:33;101019.25;;;27.82;39.60
23427;BME280;41148;45.420;10.952;2023-06-24T07:58:01;101023.41;;;27.86;39.03
23427;BME280;41148;45.420;10.952;2023-06-24T08:00:30;101008.16;;;27.83;39.21
23427;BME280;41148;45.420;10.952;2023-06-24T08:02:57;101002.09;;;27.89;38.12
23427;BME280;41148;45.420;10.952;2023-06-24T08:05:25;101007.81;;;27.96;38.44
23427;BME280;41148;45.420;10.952;2023-06-24T08:07:53;101013.72;;;28.11;39.14
23427;BME280;41148;45.420;10.952;2023-06-24T08:10:21;101000.25;;;28.17;38.32
23427;BME280;41148;45.420;10.952;2023-06-24T08:12:48;101004.28;;;28.33;38.20
23427;BME280;41148;45.420;10.952;2023-06-24T08:15:16;101000.53;;;28.34;37.88
23427;BME280;41148;45.420;10.952;2023-06-24T08:17:43;101001.72;;;28.31;35.45
23427;BME280;41148;45.420;10.952;2023-06-24T08:20:11;100996.94;;;28.33;33.35
23427;BME280;41148;45.420;10.952;2023-06-24T08:22:39;101001.88;;;28.20;34.27
23427;BME280;41148;45.420;10.952;2023-06-24T08:25:07;101003.41;;;28.42;34.20
23427;BME280;41148;45.420;10.952;2023-06-24T08:27:34;101007.53;;;28.46;34.19
23427;BME280;41148;45.420;10.952;2023-06-24T08:30:04;101003.84;;;28.65;34.85
23427;BME280;41148;45.420;10.952;2023-06-24T08:32:32;100992.66;;;28.58;34.22
23427;BME280;41148;45.420;10.952;2023-06-24T08:34:59;100997.78;;;28.71;34.05
23427;BME280;41148;45.420;10.952;2023-06-24T08:37:27;100993.94;;;28.82;34.55
23427;BME280;41148;45.420;10.952;2023-06-24T08:39:55;100987.28;;;28.84;32.96
23427;BME280;41148;45.420;10.952;2023-06-24T08:42:22;100992.84;;;29.02;32.31
23427;BME280;41148;45.420;10.952;2023-06-24T08:44:50;100989.06;;;29.03;32.91
23427;BME280;41148;45.420;10.952;2023-06-24T08:47:18;100985.41;;;29.12;34.04
23427;BME280;41148;45.420;10.952;2023-06-24T08:52:38;100993.72;;;29.20;32.48
23427;BME280;41148;45.420;10.952;2023-06-24T08:55:13;100989.78;;;29.23;32.28
23427;BME280;41148;45.420;10.952;2023-06-24T08:57:43;100993.03;;;29.36;30.43
23427;BME280;41148;45.420;10.952;2023-06-24T09:00:11;100992.25;;;29.44;30.24
23427;BME280;41148;45.420;10.952;2023-06-24T09:02:39;100981.59;;;29.58;31.04
23427;BME280;41148;45.420;10.952;2023-06-24T09:05:07;100985.78;;;29.71;30.86
23427;BME280;41148;45.420;10.952;2023-06-24T09:07:37;100979.66;;;29.77;31.01
23427;BME280;41148;45.420;10.952;2023-06-24T09:10:05;100977.19;;;29.66;30.88
23427;BME280;41148;45.420;10.952;2023-06-24T09:12:34;100982.34;;;29.69;31.12
23427;BME280;41148;45.420;10.952;2023-06-24T09:15:03;100982.09;;;29.80;31.23
23427;BME280;41148;45.420;10.952;2023-06-24T09:17:31;100973.22;;;29.86;31.04
23427;BME280;41148;45.420;10.952;2023-06-24T09:20:05;100978.38;;;29.89;30.89
23427;BME280;41148;45.420;10.952;2023-06-24T09:22:33;100977.38;;;29.72;30.87
23427;BME280;41148;45.420;10.952;2023-06-24T09:25:01;100966.16;;;29.83;31.15
23427;BME280;41148;45.420;10.952;2023-06-24T09:27:31;100972.88;;;30.07;31.46
23427;BME280;41148;45.420;10.952;2023-06-24T09:30:00;100969.16;;;30.16;31.67
23427;BME280;41148;45.420;10.952;2023-06-24T09:32:29;100964.44;;;30.34;31.76
23427;BME280;41148;45.420;10.952;2023-06-24T09:34:58;100966.03;;;30.45;31.04
23427;BME280;41148;45.420;10.952;2023-06-24T09:37:30;100961.75;;;30.51;30.84
23427;BME280;41148;45.420;10.952;2023-06-24T09:39:59;100957.13;;;30.59;30.87
23427;BME280;41148;45.420;10.952;2023-06-24T09:42:29;100951.72;;;30.75;32.90
23427;BME280;41148;45.420;10.952;2023-06-24T09:44:56;100954.69;;;30.82;30.71
23427;BME280;41148;45.420;10.952;2023-06-24T09:47:24;100958.34;;;30.99;31.12
23427;BME280;41148;45.420;10.952;2023-06-24T09:49:54;100950.41;;;31.04;29.84
23427;BME280;41148;45.420;10.952;2023-06-24T09:52:22;100944.00;;;30.87;29.64
23427;BME280;41148;45.420;10.952;2023-06-24T09:54:51;100944.00;;;30.71;29.82
23427;BME280;41148;45.420;10.952;2023-06-24T09:57:27;100941.16;;;30.55;29.25
23427;BME280;41148;45.420;10.952;2023-06-24T09:59:56;100950.44;;;30.54;30.64
23427;BME280;41148;45.420;10.952;2023-06-24T10:02:25;100936.91;;;30.68;31.02
23427;BME280;41148;45.420;10.952;2023-06-24T10:04:53;100943.16;;;30.87;29.49
23427;BME280;41148;45.420;10.952;2023-06-24T10:07:21;100942.81;;;30.82;29.59
23427;BME280;41148;45.420;10.952;2023-06-24T10:09:49;100927.97;;;30.66;31.71
23427;BME280;41148;45.420;10.952;2023-06-24T10:12:17;100933.69;;;30.73;31.41
23427;BME280;41148;45.420;10.952;2023-06-24T10:14:45;100928.53;;;30.70;29.78
23427;BME280;41148;45.420;10.952;2023-06-24T10:17:12;100917.22;;;30.81;30.08
23427;BME280;41148;45.420;10.952;2023-06-24T10:19:41;100920.84;;;30.90;30.04
23427;BME280;41148;45.420;10.952;2023-06-24T10:22:09;100913.28;;;30.92;29.87
23427;BME280;41148;45.420;10.952;2023-06-24T10:24:39;100906.72;;;30.85;30.05
23427;BME280;41148;45.420;10.952;2023-06-24T10:29:47;100899.06;;;30.62;29.82
23427;BME280;41148;45.420;10.952;2023-06-24T10:32:15;100915.03;;;30.59;29.94
23427;BME280;41148;45.420;10.952;2023-06-24T10:34:44;100898.69;;;30.49;30.91
23427;BME280;41148;45.420;10.952;2023-06-24T10:44:51;100890.03;;;30.70;29.93
23427;BME280;41148;45.420;10.952;2023-06-24T10:47:21;100890.19;;;30.76;31.03
23427;BME280;41148;45.420;10.952;2023-06-24T10:49:49;100880.56;;;30.72;28.96
23427;BME280;41148;45.420;10.952;2023-06-24T10:52:22;100885.69;;;30.67;30.10
23427;BME280;41148;45.420;10.952;2023-06-24T10:54:51;100881.78;;;30.70;30.27
23427;BME280;41148;45.420;10.952;2023-06-24T10:57:24;100882.28;;;30.73;29.74
23427;BME280;41148;45.420;10.952;2023-06-24T10:59:54;100888.53;;;30.41;29.58
23427;BME280;41148;45.420;10.952;2023-06-24T11:02:25;100874.94;;;30.40;30.80
23427;BME280;41148;45.420;10.952;2023-06-24T11:04:57;100863.63;;;30.43;29.93
23427;BME280;41148;45.420;10.952;2023-06-24T11:07:33;100869.47;;;30.48;31.06
23427;BME280;41148;45.420;10.952;2023-06-24T11:10:11;100861.59;;;30.53;29.90
23427;BME280;41148;45.420;10.952;2023-06-24T11:12:41;100864.06;;;30.64;28.80
23427;BME280;41148;45.420;10.952;2023-06-24T11:15:11;100867.13;;;30.61;28.53
23427;BME280;41148;45.420;10.952;2023-06-24T11:17:40;100862.16;;;30.14;29.35
23427;BME280;41148;45.420;10.952;2023-06-24T11:20:12;100854.59;;;30.16;30.50
23427;BME280;41148;45.420;10.952;2023-06-24T11:22:40;100847.84;;;30.53;29.69
23427;BME280;41148;45.420;10.952;2023-06-24T11:25:38;100855.81;;;30.64;29.62
23427;BME280;41148;45.420;10.952;2023-06-24T11:28:12;100855.13;;;30.70;29.41
23427;BME280;41148;45.420;10.952;2023-06-24T11:30:40;100847.38;;;30.66;29.55
23427;BME280;41148;45.420;10.952;2023-06-24T11:33:08;100845.97;;;30.62;29.56
23427;BME280;41148;45.420;10.952;2023-06-24T11:35:35;100847.38;;;30.66;29.64
23427;BME280;41148;45.420;10.952;2023-06-24T11:38:04;100850.81;;;30.68;29.43
23427;BME280;41148;45.420;10.952;2023-06-24T11:40:33;100843.78;;;30.73;29.90
23427;BME280;41148;45.420;10.952;2023-06-24T11:43:01;100841.53;;;30.69;30.06
23427;BME280;41148;45.420;10.952;2023-06-24T11:45:31;100823.69;;;30.81;28.82
23427;BME280;41148;45.420;10.952;2023-06-24T11:48:02;100847.06;;;30.93;28.86
23427;BME280;41148;45.420;10.952;2023-06-24T11:50:32;100830.91;;;30.82;28.75
23427;BME280;41148;45.420;10.952;2023-06-24T11:53:00;100829.88;;;30.91;28.30
23427;BME280;41148;45.420;10.952;2023-06-24T11:55:28;100828.66;;;30.86;28.70
23427;BME280;41148;45.420;10.952;2023-06-24T11:58:00;100837.44;;;30.89;28.91
23427;BME280;41148;45.420;10.952;2023-06-24T12:00:31;100839.84;;;31.00;28.27
23427;BME280;41148;45.420;10.952;2023-06-24T12:03:01;100830.06;;;30.90;28.10
23427;BME280;41148;45.420;10.952;2023-06-24T12:05:30;100831.78;;;30.91;28.55
23427;BME280;41148;45.420;10.952;2023-06-24T12:08:04;100828.00;;;30.92;28.64
23427;BME280;41148;45.420;10.952;2023-06-24T12:10:32;100825.91;;;30.94;29.13
23427;BME280;41148;45.420;10.952;2023-06-24T12:13:02;100827.81;;;30.93;29.65
23427;BME280;41148;45.420;10.952;2023-06-24T12:15:30;100826.78;;;30.94;29.08
23427;BME280;41148;45.420;10.952;2023-06-24T12:17:58;100824.88;;;30.95;28.62
23427;BME280;41148;45.420;10.952;2023-06-24T12:20:26;100825.06;;;30.93;29.84
23427;BME280;41148;45.420;10.952;2023-06-24T12:22:57;100818.53;;;30.94;29.65
23427;BME280;41148;45.420;10.952;2023-06-24T12:25:24;100812.53;;;30.99;29.63
23427;BME280;41148;45.420;10.952;2023-06-24T12:27:52;100819.03;;;31.06;29.83
23427;BME280;41148;45.420;10.952;2023-06-24T12:30:19;100820.78;;;30.99;29.49
23427;BME280;41148;45.420;10.952;2023-06-24T12:32:51;100821.47;;;31.01;29.71
23427;BME280;41148;45.420;10.952;2023-06-24T12:35:19;100814.56;;;30.97;29.26
23427;BME280;41148;45.420;10.952;2023-06-24T12:37:47;100819.38;;;30.95;29.03
23427;BME280;41148;45.420;10.952;2023-06-24T12:40:15;100809.75;;;30.91;28.61
23427;BME280;41148;45.420;10.952;2023-06-24T12:42:42;100808.22;;;30.80;28.44
23427;BME280;41148;45.420;10.952;2023-06-24T12:45:10;100797.38;;;30.70;29.04
23427;BME280;41148;45.420;10.952;2023-06-24T12:47:37;100797.03;;;30.73;29.24
23427;BME280;41148;45.420;10.952;2023-06-24T12:50:05;100799.09;;;30.88;29.31
23427;BME280;41148;45.420;10.952;2023-06-24T12:52:36;100792.03;;;30.85;29.13
23427;BME280;41148;45.420;10.952;2023-06-24T12:55:05;100800.47;;;31.00;29.64
23427;BME280;41148;45.420;10.952;2023-06-24T12:57:35;100798.06;;;31.05;29.57
23427;BME280;41148;45.420;10.952;2023-06-24T13:00:06;100794.63;;;31.19;28.68
23427;BME280;41148;45.420;10.952;2023-06-24T13:02:35;100796.16;;;31.14;28.92
23427;BME280;41148;45.420;10.952;2023-06-24T13:05:03;100787.59;;;31.09;28.40
23427;BME280;41148;45.420;10.952;2023-06-24T13:07:31;100791.50;;;30.98;28.88
23427;BME280;41148;45.420;10.952;2023-06-24T13:10:00;100784.66;;;30.86;29.37
23427;BME280;41148;45.420;10.952;2023-06-24T13:12:29;100789.28;;;30.85;29.56
23427;BME280;41148;45.420;10.952;2023-06-24T13:14:57;100779.50;;;30.91;29.07